createdAt,value
2023-02-09T00:01:41.042Z,8.27
2023-02-09T00:04:09.295Z,8.47
2023-02-09T00:06:37.465Z,7.83
2023-02-09T00:09:05.702Z,7.93
2023-02-09T00:11:51.775Z,8.20
2023-02-09T00:14:22.319Z,7.77
2023-02-09T00:16:50.624Z,7.93
2023-02-09T00:19:19.288Z,8.40
2023-02-09T00:21:47.772Z,8.57
2023-02-09T00:24:16.588Z,8.37
2023-02-09T00:26:44.808Z,8.00
2023-02-09T00:29:13.396Z,8.27
2023-02-09T00:31:43.021Z,8.90
2023-02-09T00:34:12.281Z,8.63
2023-02-09T00:36:40.517Z,8.73
2023-02-09T00:39:09.009Z,8.70
2023-02-09T00:41:54.825Z,8.53
2023-02-09T00:44:23.009Z,9.23
2023-02-09T00:46:52.998Z,9.10
2023-02-09T00:49:21.243Z,9.57
2023-02-09T00:51:49.405Z,8.13
2023-02-09T00:54:17.877Z,8.83
2023-02-09T00:56:46.259Z,9.57
2023-02-09T00:59:14.779Z,9.13
2023-02-09T01:01:43.230Z,8.60
2023-02-09T01:04:12.861Z,8.70
2023-02-09T01:06:41.150Z,8.57
2023-02-09T01:09:09.495Z,8.83
2023-02-09T01:11:37.634Z,8.40
2023-02-09T01:14:06.042Z,9.00
2023-02-09T01:16:34.373Z,8.07
2023-02-09T01:19:02.988Z,7.77
2023-02-09T01:21:32.595Z,8.37
2023-02-09T01:24:01.007Z,8.87
2023-02-09T01:26:29.459Z,8.23
2023-02-09T01:28:57.611Z,8.60
2023-02-09T01:31:27.137Z,7.73
2023-02-09T01:33:55.630Z,8.10
2023-02-09T01:36:23.881Z,8.23
2023-02-09T01:38:55.418Z,8.33
2023-02-09T01:41:23.637Z,8.37
2023-02-09T01:43:53.583Z,8.10
2023-02-09T01:46:22.110Z,9.00
2023-02-09T01:48:51.731Z,8.53
2023-02-09T01:51:20.597Z,8.50
2023-02-09T01:53:48.892Z,8.47
2023-02-09T01:56:20.077Z,8.13
2023-02-09T01:58:48.548Z,8.60
2023-02-09T02:01:17.013Z,8.40
2023-02-09T02:03:45.775Z,8.90
2023-02-09T02:06:15.720Z,9.10
2023-02-09T02:08:47.111Z,9.10
2023-02-09T02:11:15.464Z,9.03
2023-02-09T02:13:45.068Z,8.90
2023-02-09T02:16:23.785Z,8.57
2023-02-09T02:19:03.808Z,8.33
2023-02-09T02:22:02.001Z,9.37
2023-02-09T02:24:51.100Z,8.30
2023-02-09T02:27:26.677Z,8.63
2023-02-09T02:30:06.637Z,9.53
2023-02-09T02:32:39.610Z,9.33
2023-02-09T02:35:12.508Z,9.47
2023-02-09T02:37:46.928Z,9.03
2023-02-09T02:40:20.538Z,8.87
2023-02-09T02:42:51.573Z,9.70
2023-02-09T02:45:23.500Z,9.13
2023-02-09T02:47:56.877Z,9.70
2023-02-09T02:50:29.035Z,9.50
2023-02-09T02:52:59.060Z,9.17
2023-02-09T02:55:29.684Z,10.30
2023-02-09T02:57:59.568Z,9.73
2023-02-09T03:00:28.439Z,9.63
2023-02-09T03:03:00.830Z,8.73
2023-02-09T03:05:29.800Z,9.40
2023-02-09T03:07:57.997Z,9.90
2023-02-09T03:10:28.409Z,9.30
2023-02-09T03:13:00.952Z,8.73
2023-02-09T03:15:34.042Z,9.57
2023-02-09T03:18:08.514Z,9.37
2023-02-09T03:20:41.276Z,8.93
2023-02-09T03:23:14.536Z,10.30
2023-02-09T03:25:45.542Z,9.30
2023-02-09T03:28:16.399Z,10.03
2023-02-09T03:30:45.461Z,9.57
2023-02-09T03:33:21.481Z,9.57
2023-02-09T03:35:50.612Z,9.20
2023-02-09T03:38:18.854Z,9.17
2023-02-09T03:40:47.246Z,9.17
2023-02-09T03:43:15.694Z,9.70
2023-02-09T03:45:43.878Z,9.60
2023-02-09T03:48:12.060Z,9.80
2023-02-09T03:50:41.604Z,9.30
2023-02-09T03:53:09.804Z,9.20
2023-02-09T03:55:38.255Z,9.70
2023-02-09T03:58:06.404Z,9.97
2023-02-09T04:00:34.677Z,9.97
2023-02-09T04:03:02.906Z,10.03
2023-02-09T04:05:31.137Z,9.93
2023-02-09T04:08:00.668Z,10.03
2023-02-09T04:10:29.402Z,10.50
2023-02-09T04:12:57.590Z,9.37
2023-02-09T04:15:25.844Z,10.30
2023-02-09T04:17:53.961Z,10.00
2023-02-09T04:20:22.089Z,10.10
2023-02-09T04:22:50.312Z,10.27
2023-02-09T04:25:19.848Z,10.57
2023-02-09T04:27:47.988Z,10.90
2023-02-09T04:30:16.188Z,9.73
2023-02-09T04:32:44.372Z,10.33
2023-02-09T04:35:12.560Z,10.07
2023-02-09T04:37:40.782Z,10.97
2023-02-09T04:40:09.380Z,10.40
2023-02-09T04:42:38.884Z,10.20
2023-02-09T04:45:07.742Z,10.70
2023-02-09T04:47:35.875Z,10.13
2023-02-09T04:50:04.067Z,10.23
2023-02-09T04:52:32.287Z,10.63
2023-02-09T04:55:00.513Z,10.43
2023-02-09T04:57:42.641Z,10.53
2023-02-09T05:00:13.148Z,9.63
2023-02-09T05:02:41.325Z,9.60
2023-02-09T05:05:09.730Z,9.17
2023-02-09T05:07:37.890Z,9.40
2023-02-09T05:10:06.379Z,10.10
2023-02-09T05:12:34.607Z,9.47
2023-02-09T05:15:02.780Z,9.23
2023-02-09T05:17:34.223Z,8.97
2023-02-09T05:20:02.548Z,8.77
2023-02-09T05:22:30.720Z,8.77
2023-02-09T05:24:58.874Z,8.67
2023-02-09T05:27:27.211Z,8.50
2023-02-09T05:29:55.341Z,8.00
2023-02-09T05:32:23.552Z,8.00
2023-02-09T05:34:53.109Z,8.27
2023-02-09T05:37:21.281Z,8.50
2023-02-09T05:39:50.999Z,7.63
2023-02-09T05:42:19.223Z,8.27
2023-02-09T05:44:48.265Z,8.13
2023-02-09T05:47:17.648Z,8.53
2023-02-09T05:49:46.010Z,8.17
2023-02-09T05:52:16.651Z,8.10
2023-02-09T05:54:44.857Z,7.53
2023-02-09T05:57:13.016Z,8.03
2023-02-09T05:59:41.173Z,8.57
2023-02-09T06:02:09.329Z,7.93
2023-02-09T06:04:37.697Z,8.20
2023-02-09T06:07:06.135Z,7.77
2023-02-09T06:09:35.684Z,8.37
2023-02-09T06:12:03.897Z,8.73
2023-02-09T06:14:32.124Z,7.50
2023-02-09T06:17:00.329Z,7.73
2023-02-09T06:19:28.559Z,7.57
2023-02-09T06:21:56.719Z,7.80
2023-02-09T06:24:24.900Z,7.17
2023-02-09T06:26:56.162Z,7.60
2023-02-09T06:29:24.571Z,8.03
2023-02-09T06:31:52.942Z,8.23
2023-02-09T06:34:21.146Z,7.33
2023-02-09T06:36:49.303Z,7.50
2023-02-09T06:39:17.478Z,8.60
2023-02-09T06:41:45.671Z,7.63
2023-02-09T06:44:15.201Z,8.47
2023-02-09T06:46:43.570Z,7.80
2023-02-09T06:49:11.746Z,7.93
2023-02-09T06:51:40.104Z,7.60
2023-02-09T06:54:08.422Z,7.93
2023-02-09T06:56:36.576Z,8.07
2023-02-09T06:59:04.727Z,7.47
2023-02-09T07:01:34.264Z,8.43
2023-02-09T07:04:02.839Z,8.13
2023-02-09T07:06:30.960Z,8.90
2023-02-09T07:08:59.178Z,8.13
2023-02-09T07:11:27.413Z,8.23
2023-02-09T07:13:55.629Z,8.03
2023-02-09T07:16:23.924Z,8.73
2023-02-09T07:18:53.549Z,8.10
2023-02-09T07:21:22.305Z,8.47
2023-02-09T07:23:50.780Z,8.57
2023-02-09T07:26:19.812Z,8.47
2023-02-09T07:28:47.974Z,9.03
2023-02-09T07:31:17.057Z,8.47
2023-02-09T07:33:45.465Z,8.70
2023-02-09T07:36:15.900Z,8.33
2023-02-09T07:38:44.233Z,8.43
2023-02-09T07:41:15.122Z,7.90
2023-02-09T07:43:43.367Z,7.50
2023-02-09T07:46:11.809Z,8.47
2023-02-09T07:48:40.078Z,8.63
2023-02-09T07:51:08.300Z,8.30
2023-02-09T07:53:37.858Z,7.50
2023-02-09T07:56:06.732Z,8.20
2023-02-09T07:58:34.949Z,7.70
2023-02-09T08:01:04.720Z,7.90
2023-02-09T08:03:33.495Z,7.80
2023-02-09T08:06:03.712Z,8.23
2023-02-09T08:08:31.934Z,7.87
2023-02-09T08:11:04.177Z,7.77
2023-02-09T08:13:33.617Z,7.93
2023-02-09T08:16:04.858Z,8.30
2023-02-09T08:18:35.504Z,8.00
2023-02-09T08:21:05.874Z,7.87
2023-02-09T08:23:38.420Z,8.77
2023-02-09T08:26:10.979Z,8.60
2023-02-09T08:28:44.949Z,8.77
2023-02-09T08:31:14.044Z,8.73
2023-02-09T08:33:42.721Z,8.60
2023-02-09T08:36:11.364Z,8.80
2023-02-09T08:38:39.727Z,8.70
2023-02-09T08:41:08.995Z,9.20
2023-02-09T08:43:38.718Z,8.83
2023-02-09T08:46:07.865Z,8.40
2023-02-09T08:48:37.391Z,9.17
2023-02-09T08:51:06.002Z,8.60
2023-02-09T08:53:34.137Z,8.07
2023-02-09T08:56:02.475Z,8.70
2023-02-09T08:58:33.223Z,8.93
2023-02-09T09:01:03.069Z,9.13
2023-02-09T09:03:33.219Z,8.73
2023-02-09T09:06:01.929Z,8.57
2023-02-09T09:08:30.567Z,10.00
2023-02-09T09:10:59.042Z,9.10
2023-02-09T09:13:27.485Z,9.03
2023-02-09T09:15:56.364Z,8.83
2023-02-09T09:18:26.447Z,9.97
2023-02-09T09:20:56.159Z,8.83
2023-02-09T09:23:24.429Z,9.10
2023-02-09T09:25:52.704Z,9.43
2023-02-09T09:28:20.876Z,9.97
2023-02-09T09:30:49.126Z,9.73
2023-02-09T09:33:17.459Z,9.47
2023-02-09T09:35:47.309Z,9.30
2023-02-09T09:38:15.677Z,9.80
2023-02-09T09:40:46.450Z,9.80
2023-02-09T09:43:19.954Z,10.07
2023-02-09T09:45:49.182Z,10.90
2023-02-09T09:48:23.634Z,9.90
2023-02-09T09:50:54.134Z,10.57
2023-02-09T09:53:28.688Z,11.30
2023-02-09T09:55:59.258Z,11.10
2023-02-09T09:58:30.058Z,10.90
2023-02-09T10:00:58.543Z,10.47
2023-02-09T10:03:27.207Z,10.40
2023-02-09T10:05:57.541Z,11.80
2023-02-09T10:08:30.818Z,11.30
2023-02-09T10:10:59.857Z,11.90
2023-02-09T10:13:32.461Z,11.47
2023-02-09T10:16:00.763Z,11.73
2023-02-09T10:18:30.160Z,11.00
2023-02-09T10:21:04.425Z,11.57
2023-02-09T10:23:39.822Z,11.30
2023-02-09T10:26:18.798Z,11.50
2023-02-09T10:28:48.329Z,12.33
2023-02-09T10:31:20.792Z,11.63
2023-02-09T10:33:52.221Z,12.73
2023-02-09T10:36:26.273Z,11.87
2023-02-09T10:38:55.110Z,12.60
2023-02-09T10:41:24.149Z,14.20
2023-02-09T10:43:53.273Z,13.17
2023-02-09T10:46:22.487Z,13.20
2023-02-09T10:48:50.750Z,13.10
2023-02-09T10:51:28.841Z,13.00
2023-02-09T10:54:02.957Z,13.40
2023-02-09T10:56:36.517Z,14.60
2023-02-09T10:59:05.848Z,12.70
2023-02-09T11:01:35.808Z,13.53
2023-02-09T11:04:05.566Z,13.00
2023-02-09T11:06:37.023Z,13.23
2023-02-09T11:09:09.094Z,14.00
2023-02-09T11:11:38.405Z,14.23
2023-02-09T11:14:11.762Z,13.27
2023-02-09T11:16:49.287Z,15.23
2023-02-09T11:19:26.227Z,14.33
2023-02-09T11:22:07.063Z,15.33
2023-02-09T11:24:43.828Z,14.90
2023-02-09T11:27:23.419Z,15.07
2023-02-09T11:29:54.617Z,14.30
2023-02-09T11:32:27.185Z,15.93
2023-02-09T11:35:01.408Z,14.93
2023-02-09T11:37:32.113Z,15.37
2023-02-09T11:40:06.213Z,15.97
2023-02-09T11:42:46.760Z,15.40
2023-02-09T11:45:24.023Z,15.60
2023-02-09T11:47:58.917Z,16.63
2023-02-09T11:50:30.483Z,15.60
2023-02-09T11:53:00.000Z,16.30
2023-02-09T11:55:30.716Z,16.30
2023-02-09T11:58:04.888Z,15.37
2023-02-09T12:00:47.990Z,15.80
2023-02-09T12:03:20.745Z,16.03
2023-02-09T12:05:49.572Z,16.37
2023-02-09T12:08:24.059Z,16.10
2023-02-09T12:10:58.156Z,17.83
2023-02-09T12:13:31.792Z,17.00
2023-02-09T12:16:00.720Z,16.77
2023-02-09T12:18:30.716Z,17.43
2023-02-09T12:21:00.192Z,17.60
2023-02-09T12:23:32.660Z,15.70
2023-02-09T12:26:03.093Z,17.73
2023-02-09T12:28:41.522Z,18.10
2023-02-09T12:31:11.691Z,18.27
2023-02-09T12:33:40.395Z,17.37
2023-02-09T12:36:26.286Z,17.77
2023-02-09T12:39:05.721Z,17.97
2023-02-09T12:41:48.985Z,18.40
2023-02-09T12:44:35.789Z,17.93
2023-02-09T12:47:05.373Z,18.37
2023-02-09T12:49:34.712Z,18.83
2023-02-09T12:52:11.676Z,19.27
2023-02-09T12:54:41.208Z,19.70
2023-02-09T12:57:49.458Z,20.40
2023-02-09T13:00:34.123Z,19.83
2023-02-09T13:03:12.423Z,18.87
2023-02-09T13:05:44.467Z,19.93
2023-02-09T13:08:37.053Z,19.83
2023-02-09T13:11:07.052Z,18.97
2023-02-09T13:13:50.564Z,18.80
2023-02-09T13:16:33.716Z,19.67
2023-02-09T13:19:11.462Z,20.37
2023-02-09T13:21:44.256Z,19.63
2023-02-09T13:24:14.774Z,19.57
2023-02-09T13:26:50.131Z,19.43
2023-02-09T13:29:21.249Z,20.10
2023-02-09T13:31:55.955Z,20.63
2023-02-09T13:34:30.694Z,20.17
2023-02-09T13:37:03.431Z,19.77
2023-02-09T13:39:34.354Z,19.37
2023-02-09T13:42:02.595Z,20.57
2023-02-09T13:44:32.044Z,20.20
2023-02-09T13:47:01.110Z,20.67
2023-02-09T13:49:31.371Z,19.73
2023-02-09T13:52:13.526Z,20.53
2023-02-09T13:54:42.278Z,20.77
2023-02-09T13:57:11.349Z,20.20
2023-02-09T13:59:42.653Z,20.57
2023-02-09T14:02:19.871Z,20.13
2023-02-09T14:04:51.966Z,21.80
2023-02-09T14:07:21.196Z,21.83
2023-02-09T14:09:51.053Z,22.63
2023-02-09T14:12:21.256Z,21.60
2023-02-09T14:15:12.134Z,22.13
2023-02-09T14:17:40.339Z,22.00
2023-02-09T14:20:20.995Z,21.20
2023-02-09T14:22:56.424Z,22.37
2023-02-09T14:25:25.480Z,22.03
2023-02-09T14:27:54.108Z,22.67
2023-02-09T14:30:23.697Z,22.20
2023-02-09T14:32:55.967Z,21.63
2023-02-09T14:35:27.129Z,22.27
2023-02-09T14:37:55.926Z,22.80
2023-02-09T14:40:26.009Z,22.73
2023-02-09T14:42:58.306Z,23.77
2023-02-09T14:45:31.354Z,23.70
2023-02-09T14:47:59.583Z,23.20
2023-02-09T14:50:29.160Z,23.40
2023-02-09T14:53:09.719Z,23.50
2023-02-09T14:55:40.429Z,24.80
2023-02-09T14:58:12.639Z,22.80
2023-02-09T15:00:40.839Z,23.93
2023-02-09T15:03:09.015Z,24.33
2023-02-09T15:05:38.599Z,23.47
2023-02-09T15:08:08.938Z,24.07
2023-02-09T15:10:38.605Z,24.03
2023-02-09T15:13:07.052Z,24.13
2023-02-09T15:15:37.611Z,24.93
2023-02-09T15:18:06.032Z,25.03
2023-02-09T15:20:34.525Z,24.70
2023-02-09T15:23:04.003Z,25.30
2023-02-09T15:25:32.265Z,24.40
2023-02-09T15:28:02.738Z,25.17
2023-02-09T15:30:32.729Z,25.43
2023-02-09T15:33:01.009Z,22.37
2023-02-09T15:35:29.993Z,23.00
2023-02-09T15:37:59.422Z,21.70
2023-02-09T15:40:48.581Z,22.77
2023-02-09T15:43:35.774Z,21.70
2023-02-09T15:46:21.517Z,20.03
2023-02-09T15:48:49.685Z,20.90
2023-02-09T15:51:18.580Z,21.20
2023-02-09T15:53:47.204Z,21.00
2023-02-09T15:56:17.040Z,21.33
2023-02-09T15:58:46.072Z,20.83
2023-02-09T16:01:15.260Z,20.40
2023-02-09T16:03:43.591Z,20.57
2023-02-09T16:06:14.926Z,20.20
2023-02-09T16:08:44.165Z,17.77
2023-02-09T16:11:18.142Z,19.10
2023-02-09T16:13:47.646Z,18.23
2023-02-09T16:16:17.867Z,17.70
2023-02-09T16:18:46.280Z,17.77
2023-02-09T16:21:18.093Z,16.17
2023-02-09T16:23:47.800Z,17.90
2023-02-09T16:26:16.034Z,17.20
2023-02-09T16:28:44.217Z,17.63
2023-02-09T16:31:13.820Z,18.43
2023-02-09T16:33:43.436Z,18.60
2023-02-09T16:36:14.664Z,17.73
2023-02-09T16:38:43.294Z,17.20
2023-02-09T16:41:32.092Z,16.97
2023-02-09T16:44:00.311Z,17.27
2023-02-09T16:46:32.539Z,17.03
2023-02-09T16:49:02.382Z,18.00
2023-02-09T16:51:30.674Z,18.40
2023-02-09T16:53:59.515Z,17.93
2023-02-09T16:56:30.834Z,19.03
2023-02-09T16:58:59.054Z,17.70
2023-02-09T17:01:27.357Z,17.43
2023-02-09T17:03:57.748Z,17.93
2023-02-09T17:06:28.417Z,16.93
2023-02-09T17:08:56.643Z,16.83
2023-02-09T17:11:25.997Z,16.93
2023-02-09T17:13:54.350Z,16.70
2023-02-09T17:16:23.482Z,17.43
2023-02-09T17:18:52.709Z,18.17
2023-02-09T17:21:23.800Z,16.93
2023-02-09T17:23:52.137Z,17.47
2023-02-09T17:26:21.914Z,17.03
2023-02-09T17:28:50.127Z,17.60
2023-02-09T17:31:19.217Z,16.57
2023-02-09T17:33:48.164Z,16.20
2023-02-09T17:36:26.942Z,17.37
2023-02-09T17:38:58.389Z,18.83
2023-02-09T17:41:30.111Z,17.97
2023-02-09T17:44:10.589Z,17.23
2023-02-09T17:46:46.384Z,17.80
2023-02-09T17:49:14.572Z,17.43
2023-02-09T17:51:43.462Z,16.90
2023-02-09T17:54:14.992Z,16.43
2023-02-09T17:56:43.744Z,16.70
2023-02-09T17:59:13.226Z,17.57
2023-02-09T18:01:42.366Z,18.27
2023-02-09T18:04:16.774Z,17.60
2023-02-09T18:06:45.088Z,16.57
2023-02-09T18:09:15.190Z,16.97
2023-02-09T18:11:57.412Z,16.23
2023-02-09T18:14:26.265Z,16.60
2023-02-09T18:16:55.135Z,16.63
2023-02-09T18:19:23.580Z,15.63
2023-02-09T18:21:52.694Z,16.57
2023-02-09T18:24:23.896Z,16.13
2023-02-09T18:26:52.069Z,17.07
2023-02-09T18:29:22.723Z,15.60
2023-02-09T18:31:51.042Z,16.87
2023-02-09T18:34:19.498Z,16.73
2023-02-09T18:36:47.712Z,15.77
2023-02-09T18:39:16.474Z,15.17
2023-02-09T18:41:48.380Z,15.80
2023-02-09T18:44:16.591Z,16.17
2023-02-09T18:46:44.841Z,16.30
2023-02-09T18:49:13.761Z,17.17
2023-02-09T18:51:42.081Z,17.33
2023-02-09T18:54:10.394Z,18.10
2023-02-09T18:56:38.520Z,17.97
2023-02-09T18:59:08.213Z,17.20
2023-02-09T19:01:36.576Z,17.20
2023-02-09T19:04:05.152Z,18.83
2023-02-09T19:06:35.403Z,16.67
2023-02-09T19:09:03.701Z,16.80
2023-02-09T19:11:31.905Z,17.40
2023-02-09T19:14:17.530Z,15.60
2023-02-09T19:16:47.076Z,17.70
2023-02-09T19:19:16.310Z,17.80
2023-02-09T19:21:44.442Z,16.50
2023-02-09T19:24:12.640Z,18.67
2023-02-09T19:26:40.908Z,18.73
2023-02-09T19:29:09.113Z,18.57
2023-02-09T19:31:37.545Z,18.40
2023-02-09T19:34:07.091Z,18.27
2023-02-09T19:36:35.278Z,16.73
2023-02-09T19:39:03.638Z,16.80
2023-02-09T19:41:31.829Z,15.87
2023-02-09T19:44:00.073Z,15.63
2023-02-09T19:46:28.404Z,17.23
2023-02-09T19:48:57.556Z,16.27
2023-02-09T19:51:27.115Z,16.00
2023-02-09T19:53:55.348Z,15.83
2023-02-09T19:56:24.059Z,16.27
2023-02-09T19:58:52.527Z,16.27
2023-02-09T20:01:20.781Z,18.33
2023-02-09T20:03:49.420Z,16.47
2023-02-09T20:06:18.366Z,17.87
2023-02-09T20:08:47.980Z,17.97
2023-02-09T20:11:18.208Z,16.73
2023-02-09T20:13:46.418Z,16.60
2023-02-09T20:16:18.621Z,17.97
2023-02-09T20:18:48.633Z,17.23
2023-02-09T20:21:17.699Z,16.33
2023-02-09T20:23:47.849Z,16.73
2023-02-09T20:26:17.907Z,15.73
2023-02-09T20:28:46.097Z,15.90
2023-02-09T20:31:15.860Z,16.43
2023-02-09T20:33:44.163Z,16.23
2023-02-09T20:36:12.475Z,18.10
2023-02-09T20:38:40.677Z,17.20
2023-02-09T20:41:11.112Z,16.37
2023-02-09T20:43:56.911Z,16.70
2023-02-09T20:46:55.206Z,16.30
2023-02-09T20:49:24.005Z,15.30
2023-02-09T20:51:52.196Z,16.93
2023-02-09T20:54:20.365Z,15.53
2023-02-09T20:56:49.870Z,14.67
2023-02-09T20:59:18.222Z,14.77
2023-02-09T21:01:46.386Z,15.10
2023-02-09T21:04:15.530Z,16.90
2023-02-09T21:06:44.261Z,15.60
2023-02-09T21:09:14.903Z,14.23
2023-02-09T21:11:43.205Z,14.30
2023-02-09T21:14:21.932Z,14.47
2023-02-09T21:16:56.398Z,13.77
2023-02-09T21:19:25.122Z,14.23
2023-02-09T21:21:53.344Z,14.60
2023-02-09T21:24:21.778Z,13.97
2023-02-09T21:26:49.954Z,13.90
2023-02-09T21:29:19.494Z,14.23
2023-02-09T21:31:47.878Z,13.90
2023-02-09T21:34:16.653Z,13.93
2023-02-09T21:36:44.878Z,13.13
2023-02-09T21:39:13.126Z,13.50
2023-02-09T21:41:58.937Z,14.17
2023-02-09T21:44:28.472Z,13.97
2023-02-09T21:46:56.588Z,13.70
2023-02-09T21:49:25.094Z,14.17
2023-02-09T21:51:53.302Z,14.60
2023-02-09T21:54:21.483Z,14.87
2023-02-09T21:56:49.645Z,15.43
2023-02-09T21:59:17.836Z,15.60
2023-02-09T22:01:47.492Z,15.97
2023-02-09T22:04:15.729Z,16.37
2023-02-09T22:06:43.946Z,16.30
2023-02-09T22:09:12.177Z,16.37
2023-02-09T22:11:40.568Z,16.90
2023-02-09T22:14:09.407Z,16.10
2023-02-09T22:16:37.664Z,14.63
2023-02-09T22:19:07.234Z,15.33
2023-02-09T22:21:35.418Z,15.17
2023-02-09T22:24:03.641Z,15.37
2023-02-09T22:26:31.828Z,14.40
2023-02-09T22:29:00.151Z,13.43
2023-02-09T22:31:28.300Z,14.13
2023-02-09T22:33:58.405Z,15.00
2023-02-09T22:36:27.903Z,13.90
2023-02-09T22:38:56.251Z,15.00
2023-02-09T22:41:25.455Z,13.97
2023-02-09T22:43:54.604Z,13.30
2023-02-09T22:46:23.600Z,13.17
2023-02-09T22:48:52.594Z,13.80
2023-02-09T22:51:20.847Z,13.97
2023-02-09T22:53:50.324Z,13.97
2023-02-09T22:56:18.972Z,13.33
2023-02-09T22:58:47.172Z,12.53
2023-02-09T23:01:15.664Z,12.77
2023-02-09T23:03:43.956Z,13.00
2023-02-09T23:06:13.877Z,11.50
2023-02-09T23:08:42.181Z,13.23
2023-02-09T23:11:13.409Z,13.27
2023-02-09T23:13:41.557Z,14.10
2023-02-09T23:16:11.261Z,13.03
2023-02-09T23:18:39.681Z,12.70
2023-02-09T23:21:08.760Z,12.63
2023-02-09T23:23:36.894Z,13.10
2023-02-09T23:26:05.013Z,11.57
2023-02-09T23:28:34.498Z,12.07
2023-02-09T23:31:04.962Z,11.80
2023-02-09T23:33:33.382Z,12.23
2023-02-09T23:36:04.394Z,11.47
2023-02-09T23:38:32.622Z,11.07
2023-02-09T23:41:00.789Z,11.57
2023-02-09T23:43:29.099Z,10.80
2023-02-09T23:46:01.621Z,10.40
2023-02-09T23:48:29.897Z,10.37
2023-02-09T23:50:59.955Z,10.57
2023-02-09T23:53:28.217Z,10.17
2023-02-09T23:56:01.173Z,10.00
2023-02-09T23:58:29.301Z,10.00
